Time;durP1;ratioP1;P1;durP2;ratioP2;P2;SDS_P1;SDS_P2;PMS_P1;PMS_P2;Temp;Humidity;BMP_temperature;BMP_pressure;BME280_temperature;BME280_humidity;BME280_pressure;Samples;Min_cycle;Max_cycle;Signal;HPM_P1;HPM_P2
2022/04/20 00:01:11;;;;;;;13.13;5.05;;;6.40;97.20;;;;;;5018208;28;20113;-64
2022/04/20 00:03:40;;;;;;;9.35;5.00;;;6.30;98.10;;;;;;5024258;28;20521;-64
2022/04/20 00:06:06;;;;;;;10.15;5.00;;;6.30;98.30;;;;;;5023521;28;20095;-63
2022/04/20 00:08:32;;;;;;;8.45;4.75;;;6.30;98.90;;;;;;5014084;28;20453;-64
2022/04/20 00:11:02;;;;;;;8.45;4.97;;;6.30;99.50;;;;;;5020988;28;20087;-64
2022/04/20 00:13:28;;;;;;;9.13;4.53;;;6.20;99.90;;;;;;5017300;28;20128;-64
2022/04/20 00:15:54;;;;;;;10.70;5.35;;;6.20;99.90;;;;;;5018115;28;20050;-64
2022/04/20 00:18:19;;;;;;;10.55;5.13;;;6.10;99.90;;;;;;5025178;28;20547;-64
2022/04/20 00:20:46;;;;;;;8.82;5.18;;;6.00;99.90;;;;;;5014306;28;20030;-64
2022/04/20 00:23:12;;;;;;;8.45;5.25;;;6.00;99.90;;;;;;5017161;28;20367;-64
2022/04/20 00:25:37;;;;;;;12.30;5.95;;;6.00;99.90;;;;;;4999896;28;20052;-64
2022/04/20 00:28:03;;;;;;;10.43;5.63;;;6.10;99.90;;;;;;5018639;28;20030;-64
2022/04/20 00:30:29;;;;;;;10.95;5.85;;;6.00;99.90;;;;;;5004513;28;20162;-64
2022/04/20 00:32:55;;;;;;;11.23;5.20;;;6.00;99.90;;;;;;4994927;28;20034;-64
2022/04/20 00:35:21;;;;;;;10.98;4.95;;;6.00;99.90;;;;;;5016388;28;20125;-64
2022/04/20 00:37:47;;;;;;;11.18;5.35;;;6.00;99.90;;;;;;5015327;28;20034;-64
2022/04/20 00:40:13;;;;;;;12.85;5.78;;;6.00;99.90;;;;;;5016167;28;20065;-64
2022/04/20 00:42:41;;;;;;;10.73;5.28;;;6.00;99.90;;;;;;5014719;28;20041;-64
2022/04/20 00:45:08;;;;;;;8.95;5.28;;;5.90;99.90;;;;;;5023608;28;20030;-64
2022/04/20 00:47:37;;;;;;;11.18;5.35;;;5.90;99.90;;;;;;5016621;28;20032;-64
2022/04/20 00:50:06;;;;;;;11.40;5.80;;;5.80;99.90;;;;;;5012873;28;20363;-64
2022/04/20 00:52:32;;;;;;;10.75;5.25;;;5.80;99.90;;;;;;5018531;28;20030;-64
2022/04/20 00:54:58;;;;;;;11.65;5.57;;;5.70;99.90;;;;;;5019030;28;20113;-64
2022/04/20 00:57:24;;;;;;;9.20;5.30;;;5.70;99.90;;;;;;5015011;28;20034;-64
2022/04/20 00:59:53;;;;;;;19.50;5.93;;;5.60;99.90;;;;;;5016306;28;20048;-64
2022/04/20 01:02:21;;;;;;;11.57;5.50;;;5.50;99.90;;;;;;5012761;28;20029;-64
2022/04/20 01:04:47;;;;;;;10.02;5.40;;;5.40;99.90;;;;;;5005508;28;20471;-64
2022/04/20 01:07:14;;;;;;;11.40;6.28;;;5.30;99.90;;;;;;5019207;28;20440;-65
2022/04/20 01:09:44;;;;;;;10.05;5.22;;;5.30;99.90;;;;;;5011451;28;20656;-64
2022/04/20 01:12:12;;;;;;;9.23;5.38;;;5.30;99.90;;;;;;5019882;28;20039;-64
2022/04/20 01:14:38;;;;;;;10.60;5.60;;;5.30;99.90;;;;;;5020060;28;20049;-63
2022/04/20 01:17:04;;;;;;;10.35;5.53;;;5.20;99.90;;;;;;5014187;28;20049;-64
2022/04/20 01:19:34;;;;;;;10.30;5.63;;;5.20;99.90;;;;;;5010138;28;20381;-64
2022/04/20 01:22:03;;;;;;;10.55;5.75;;;5.10;99.90;;;;;;5020859;28;20021;-64
2022/04/20 01:24:29;;;;;;;10.80;5.47;;;5.10;99.90;;;;;;5028401;28;20057;-64
2022/04/20 01:26:56;;;;;;;9.13;5.20;;;5.10;99.90;;;;;;5017848;28;20025;-64
2022/04/20 01:29:23;;;;;;;9.18;5.25;;;5.00;99.90;;;;;;5023879;28;20025;-64
2022/04/20 01:31:49;;;;;;;11.80;5.97;;;4.70;99.90;;;;;;5015159;28;20481;-64
2022/04/20 01:34:14;;;;;;;9.70;5.28;;;4.70;99.90;;;;;;5015863;28;20470;-64
2022/04/20 01:36:40;;;;;;;11.00;5.85;;;4.70;99.90;;;;;;5019671;28;20102;-64
2022/04/20 01:39:06;;;;;;;10.07;5.25;;;4.60;99.90;;;;;;5023023;28;20025;-64
2022/04/20 01:41:32;;;;;;;11.05;5.43;;;4.60;99.90;;;;;;5023452;28;20493;-64
2022/04/20 01:43:57;;;;;;;11.10;5.60;;;4.50;99.90;;;;;;5015612;28;20041;-64
2022/04/20 01:46:23;;;;;;;11.18;5.40;;;4.40;99.90;;;;;;5010663;28;20030;-64
2022/04/20 01:48:49;;;;;;;10.18;5.72;;;4.30;99.90;;;;;;5020205;28;20030;-64
2022/04/20 01:53:59;;;;;;;11.55;5.85;;;4.30;99.90;;;;;;5019305;28;20045;-64
2022/04/20 01:56:25;;;;;;;10.82;5.88;;;4.30;99.90;;;;;;5010550;28;20030;-64
2022/04/20 01:58:50;;;;;;;10.60;6.22;;;4.20;99.90;;;;;;5012962;28;20091;-63
2022/04/20 02:04:00;;;;;;;10.50;5.72;;;4.10;99.90;;;;;;5015784;28;20273;-63
2022/04/20 02:06:26;;;;;;;8.25;5.05;;;4.10;99.90;;;;;;4998545;28;20120;-64
2022/04/20 02:08:52;;;;;;;12.70;5.80;;;4.00;99.90;;;;;;5024725;28;20033;-64
2022/04/20 02:11:17;;;;;;;11.93;6.50;;;4.00;99.90;;;;;;5022039;28;20248;-64
2022/04/20 02:13:43;;;;;;;11.85;5.53;;;4.00;99.90;;;;;;5019487;28;20029;-64
2022/04/20 02:16:09;;;;;;;10.88;5.53;;;3.80;99.90;;;;;;5018067;28;20141;-64
2022/04/20 02:18:34;;;;;;;10.23;5.90;;;3.70;99.90;;;;;;5014732;28;20037;-64
2022/04/20 02:21:00;;;;;;;11.95;6.30;;;3.70;99.90;;;;;;5004098;28;20067;-63
2022/04/20 02:23:26;;;;;;;11.57;6.22;;;3.60;99.90;;;;;;5020816;28;20102;-63
2022/04/20 02:25:53;;;;;;;12.45;6.25;;;3.60;99.90;;;;;;5012480;28;20084;-64
2022/04/20 02:28:19;;;;;;;11.13;5.57;;;3.50;99.90;;;;;;5011184;28;20033;-64
2022/04/20 02:30:45;;;;;;;12.25;6.20;;;3.50;99.90;;;;;;5017587;28;20053;-64
2022/04/20 02:33:10;;;;;;;19.15;6.43;;;3.50;99.90;;;;;;5015130;28;20270;-64
2022/04/20 02:35:37;;;;;;;10.32;5.50;;;3.50;99.90;;;;;;5021343;28;20046;-63
2022/04/20 02:38:03;;;;;;;15.48;5.88;;;3.40;99.90;;;;;;5018731;28;20085;-64
2022/04/20 02:40:30;;;;;;;11.30;6.10;;;3.10;99.90;;;;;;5015063;28;20025;-64
2022/04/20 02:42:56;;;;;;;12.50;5.90;;;3.00;99.90;;;;;;5012017;28;20025;-63
2022/04/20 02:45:22;;;;;;;11.73;5.85;;;2.90;99.90;;;;;;5024911;28;20033;-63
2022/04/20 02:47:48;;;;;;;14.25;6.97;;;2.90;99.90;;;;;;5011053;28;20038;-64
2022/04/20 02:50:14;;;;;;;12.65;6.70;;;2.80;99.90;;;;;;5013820;28;20094;-63
2022/04/20 02:52:39;;;;;;;15.27;8.00;;;2.90;99.90;;;;;;5022089;28;20030;-64
2022/04/20 02:55:05;;;;;;;15.57;7.05;;;2.90;99.90;;;;;;5025017;28;20390;-64
2022/04/20 02:57:31;;;;;;;16.35;7.60;;;2.90;99.90;;;;;;5004752;28;20061;-65
2022/04/20 02:59:57;;;;;;;13.57;7.35;;;2.80;99.90;;;;;;5018551;28;20033;-64
2022/04/20 03:02:23;;;;;;;12.75;6.35;;;2.90;99.90;;;;;;5011279;28;20523;-64
2022/04/20 03:04:49;;;;;;;11.63;6.50;;;2.80;99.90;;;;;;5019395;28;20025;-64
2022/04/20 03:07:14;;;;;;;13.98;6.50;;;2.60;99.90;;;;;;4997921;28;20084;-65
2022/04/20 03:09:40;;;;;;;14.68;7.30;;;2.50;99.90;;;;;;5014264;28;20056;-64
2022/04/20 03:12:06;;;;;;;14.43;7.10;;;2.50;99.90;;;;;;5020480;28;20072;-64
2022/04/20 03:14:32;;;;;;;12.10;6.57;;;2.30;99.90;;;;;;5010827;28;20520;-64
2022/04/20 03:16:58;;;;;;;15.05;6.57;;;2.30;99.90;;;;;;5014031;28;20049;-64
2022/04/20 03:19:23;;;;;;;11.50;6.80;;;2.20;99.90;;;;;;4995951;28;20516;-64
2022/04/20 03:21:49;;;;;;;9.88;6.00;;;2.30;99.90;;;;;;5013530;28;20022;-64
2022/04/20 03:24:15;;;;;;;13.27;7.05;;;2.20;99.90;;;;;;5009411;28;20040;-64
2022/04/20 03:26:40;;;;;;;13.00;6.25;;;2.20;99.90;;;;;;5016402;28;20034;-65
2022/04/20 03:29:06;;;;;;;14.75;6.63;;;2.30;99.90;;;;;;5010533;28;20030;-67
2022/04/20 03:31:34;;;;;;;10.48;6.05;;;2.30;99.90;;;;;;5011906;28;20068;-65
2022/04/20 03:34:01;;;;;;;15.20;7.03;;;2.30;99.90;;;;;;4999356;28;20129;-64
2022/04/20 03:36:27;;;;;;;12.35;6.60;;;2.30;99.90;;;;;;4991116;28;20398;-64
2022/04/20 03:38:53;;;;;;;14.07;6.97;;;2.30;99.90;;;;;;5022220;28;20117;-65
2022/04/20 03:41:18;;;;;;;13.93;7.38;;;2.30;99.90;;;;;;5011710;28;20386;-65
2022/04/20 03:43:44;;;;;;;13.95;6.65;;;2.30;99.90;;;;;;5008677;28;20466;-65
2022/04/20 03:46:11;;;;;;;14.13;6.53;;;2.30;99.90;;;;;;5009254;28;20041;-64
2022/04/20 03:48:36;;;;;;;17.20;7.32;;;2.30;99.90;;;;;;5019795;28;20044;-64
2022/04/20 03:51:02;;;;;;;15.73;7.45;;;2.30;99.90;;;;;;5028579;28;20474;-64
2022/04/20 03:53:28;;;;;;;12.63;6.55;;;2.30;99.90;;;;;;5023233;28;20056;-64
2022/04/20 03:55:54;;;;;;;14.65;7.10;;;2.20;99.90;;;;;;5000894;28;20497;-65
2022/04/20 03:58:19;;;;;;;14.73;7.35;;;2.10;99.90;;;;;;5011430;28;20045;-64
2022/04/20 04:00:45;;;;;;;12.98;6.82;;;2.10;99.90;;;;;;5015490;28;20123;-65
2022/04/20 04:03:11;;;;;;;15.45;6.90;;;2.10;99.90;;;;;;5022106;28;20159;-64
2022/04/20 04:05:37;;;;;;;15.40;7.32;;;2.10;99.90;;;;;;5013006;28;20029;-65
2022/04/20 04:08:03;;;;;;;12.95;6.82;;;2.00;99.90;;;;;;5021473;28;20038;-65
2022/04/20 04:10:29;;;;;;;12.90;6.97;;;1.90;99.90;;;;;;5022344;28;20029;-65
2022/04/20 04:12:55;;;;;;;13.60;6.85;;;1.80;99.90;;;;;;5000944;28;20030;-64
2022/04/20 04:15:21;;;;;;;10.88;6.60;;;1.90;99.90;;;;;;5008971;28;20041;-64
2022/04/20 04:17:54;;;;;;;15.70;7.90;;;1.90;99.90;;;;;;5015563;28;20034;-64
2022/04/20 04:20:22;;;;;;;14.57;7.30;;;1.80;99.90;;;;;;5011757;28;20032;-64
2022/04/20 04:22:51;;;;;;;13.82;7.45;;;1.80;99.90;;;;;;5012611;28;20164;-64
2022/04/20 04:25:17;;;;;;;17.40;8.70;;;1.80;99.90;;;;;;5020042;28;20033;-63
2022/04/20 04:27:43;;;;;;;19.92;9.40;;;1.90;99.90;;;;;;5017315;28;20033;-63
2022/04/20 04:30:10;;;;;;;15.45;7.88;;;1.90;99.90;;;;;;5016512;28;20022;-63
2022/04/20 04:32:35;;;;;;;15.27;7.55;;;1.90;99.90;;;;;;5020305;28;20036;-64
2022/04/20 04:35:01;;;;;;;13.25;7.45;;;1.90;99.90;;;;;;5011946;28;20407;-63
2022/04/20 04:37:27;;;;;;;13.63;6.82;;;1.90;99.90;;;;;;5027949;28;20136;-63
2022/04/20 04:39:53;;;;;;;14.35;7.55;;;1.90;99.90;;;;;;5016795;28;20030;-63
2022/04/20 04:42:19;;;;;;;16.75;7.45;;;1.90;99.90;;;;;;5012724;28;20185;-63
2022/04/20 04:44:45;;;;;;;12.00;6.82;;;1.80;99.90;;;;;;4998197;28;20067;-63
2022/04/20 04:49:55;;;;;;;13.15;7.15;;;1.70;99.90;;;;;;5018533;28;20113;-63
2022/04/20 04:52:20;;;;;;;12.57;6.85;;;1.80;99.90;;;;;;5016145;28;20113;-63
2022/04/20 04:54:46;;;;;;;16.60;7.32;;;1.90;99.90;;;;;;5011239;28;20122;-64
2022/04/20 04:57:12;;;;;;;12.48;6.60;;;1.90;99.90;;;;;;5017046;28;20040;-63
2022/04/20 04:59:42;;;;;;;13.65;6.82;;;2.00;99.90;;;;;;5019128;28;20046;-64
2022/04/20 05:02:09;;;;;;;14.27;7.57;;;2.00;99.90;;;;;;5023629;28;20041;-63
2022/04/20 05:04:36;;;;;;;15.60;7.57;;;2.10;99.90;;;;;;5023238;28;20108;-64
2022/04/20 05:07:02;;;;;;;15.88;7.57;;;2.20;99.90;;;;;;5019758;28;20034;-63
2022/04/20 05:09:28;;;;;;;15.20;7.22;;;2.40;99.90;;;;;;5011930;28;20026;-63
2022/04/20 05:11:54;;;;;;;15.20;7.70;;;2.50;99.90;;;;;;5000868;28;20036;-64
2022/04/20 05:14:20;;;;;;;14.45;7.70;;;2.50;99.90;;;;;;5017987;28;20030;-63
2022/04/20 05:16:46;;;;;;;13.65;7.28;;;2.60;99.90;;;;;;5018537;28;20053;-64
2022/04/20 05:19:12;;;;;;;14.32;7.47;;;2.70;99.90;;;;;;4996265;28;20034;-63
2022/04/20 05:21:38;;;;;;;19.08;7.90;;;2.80;99.90;;;;;;5011122;28;20033;-64
2022/04/20 05:24:04;;;;;;;21.40;7.40;;;2.80;99.90;;;;;;5017083;28;20108;-63
2022/04/20 05:26:30;;;;;;;14.40;7.47;;;2.80;99.90;;;;;;5016987;28;20041;-66
2022/04/20 05:28:56;;;;;;;16.33;7.72;;;2.90;99.90;;;;;;5009006;28;20254;-64
2022/04/20 05:31:22;;;;;;;12.25;6.93;;;3.00;99.90;;;;;;5016131;28;20103;-63
2022/04/20 05:33:48;;;;;;;15.75;7.97;;;3.20;99.90;;;;;;5021825;28;20470;-64
2022/04/20 05:36:15;;;;;;;15.05;7.38;;;3.30;99.90;;;;;;5018590;28;20030;-63
2022/04/20 05:41:42;;;;;;;19.13;7.70;;;3.40;99.90;;;;;;4947439;28;20464;-64
2022/04/20 05:44:12;;;;;;;16.13;8.07;;;3.60;99.90;;;;;;5022279;28;20033;-63
2022/04/20 05:46:39;;;;;;;16.95;8.52;;;3.80;99.90;;;;;;5021921;28;20033;-64
2022/04/20 05:49:05;;;;;;;20.75;9.20;;;3.90;99.90;;;;;;5022187;28;20138;-64
2022/04/20 05:51:32;;;;;;;18.63;9.80;;;4.10;99.90;;;;;;5012688;28;20128;-63
2022/04/20 05:53:57;;;;;;;18.23;9.18;;;4.20;99.90;;;;;;5012091;28;20029;-64
2022/04/20 05:56:23;;;;;;;17.77;9.25;;;4.30;99.90;;;;;;5010777;28;20030;-64
2022/04/20 05:58:52;;;;;;;18.30;9.40;;;4.40;99.90;;;;;;5014723;28;20038;-63
2022/04/20 06:01:19;;;;;;;19.13;8.85;;;4.40;99.90;;;;;;5010563;28;20106;-63
2022/04/20 06:03:45;;;;;;;18.85;9.05;;;4.50;99.90;;;;;;5013898;28;20029;-64
2022/04/20 06:06:12;;;;;;;17.95;9.00;;;4.70;99.90;;;;;;4995115;28;20038;-63
2022/04/20 06:08:37;;;;;;;22.73;9.63;;;4.70;99.90;;;;;;5021941;28;20025;-64
2022/04/20 06:11:04;;;;;;;18.23;8.98;;;4.90;99.90;;;;;;5024638;28;20381;-64
2022/04/20 06:13:32;;;;;;;15.82;8.40;;;5.10;99.90;;;;;;5010649;28;20045;-63
2022/04/20 06:15:58;;;;;;;17.77;8.57;;;5.20;99.90;;;;;;5008058;28;20584;-63
2022/04/20 06:18:23;;;;;;;15.05;8.68;;;5.40;99.90;;;;;;5021900;28;20057;-64
2022/04/20 06:20:49;;;;;;;16.58;8.60;;;5.50;99.90;;;;;;5014170;28;20026;-64
2022/04/20 06:23:15;;;;;;;18.55;9.30;;;5.60;99.90;;;;;;5010340;28;20037;-64
2022/04/20 06:25:40;;;;;;;15.80;8.27;;;5.80;99.90;;;;;;5010911;28;20204;-64
2022/04/20 06:28:06;;;;;;;13.90;8.15;;;6.00;99.90;;;;;;5010540;28;20026;-63
2022/04/20 06:30:32;;;;;;;17.38;9.40;;;6.20;99.90;;;;;;5010062;28;20022;-63
2022/04/20 06:32:58;;;;;;;22.70;9.43;;;6.30;99.90;;;;;;4991982;28;20213;-64
2022/04/20 06:35:25;;;;;;;17.15;8.77;;;6.40;99.90;;;;;;5009885;28;20482;-64
2022/04/20 06:37:50;;;;;;;15.55;8.43;;;6.60;99.90;;;;;;5017717;28;20437;-64
2022/04/20 06:40:16;;;;;;;15.77;8.35;;;6.60;99.90;;;;;;5025220;28;20108;-64
2022/04/20 06:42:42;;;;;;;16.45;8.45;;;6.70;99.90;;;;;;5009308;28;20119;-64
2022/04/20 06:45:08;;;;;;;13.45;7.78;;;6.90;99.90;;;;;;5012057;28;20042;-64
2022/04/20 06:47:34;;;;;;;14.85;8.20;;;7.10;99.90;;;;;;5019509;28;20466;-64
2022/04/20 06:50:00;;;;;;;13.35;7.57;;;7.30;99.90;;;;;;5019434;28;20029;-64
2022/04/20 07:00:39;;;;;;;14.10;7.10;;;7.70;99.90;;;;;;5010665;28;20029;-64
2022/04/20 07:03:08;;;;;;;17.52;7.38;;;7.90;99.90;;;;;;5010929;28;20037;-63
2022/04/20 07:05:35;;;;;;;13.00;7.10;;;7.90;99.90;;;;;;5009151;28;20026;-64
2022/04/20 07:08:01;;;;;;;12.10;7.22;;;7.80;99.90;;;;;;5008981;28;20104;-64
2022/04/20 07:10:27;;;;;;;12.50;7.20;;;7.90;99.90;;;;;;5009474;28;20125;-64
2022/04/20 07:12:53;;;;;;;11.45;6.90;;;7.90;99.90;;;;;;5008767;28;20457;-64
2022/04/20 07:15:19;;;;;;;12.85;6.90;;;8.10;99.90;;;;;;5009117;28;20060;-64
2022/04/20 07:17:46;;;;;;;11.30;6.32;;;8.20;99.90;;;;;;5013984;28;20050;-64
2022/04/20 07:20:17;;;;;;;14.32;6.88;;;8.30;99.90;;;;;;5017463;28;20029;-64
2022/04/20 07:22:44;;;;;;;11.88;6.63;;;8.20;99.90;;;;;;5009231;28;20072;-64
2022/04/20 07:25:09;;;;;;;10.82;6.07;;;8.30;99.90;;;;;;5009324;28;20026;-64
2022/04/20 07:27:35;;;;;;;10.45;5.78;;;8.40;99.90;;;;;;5009507;28;20041;-64
2022/04/20 07:30:01;;;;;;;10.02;5.85;;;8.70;99.90;;;;;;5008582;28;20032;-64
2022/04/20 07:32:27;;;;;;;11.57;5.70;;;8.50;99.90;;;;;;5013894;28;20034;-64
2022/04/20 07:34:52;;;;;;;12.55;5.88;;;8.50;99.90;;;;;;4990794;28;20033;-64
2022/04/20 07:37:18;;;;;;;9.85;5.45;;;8.50;99.90;;;;;;5003940;28;20045;-64
2022/04/20 07:39:44;;;;;;;10.95;5.65;;;8.50;99.90;;;;;;5011611;28;20080;-64
2022/04/20 07:42:09;;;;;;;8.82;5.28;;;8.70;99.90;;;;;;5022067;28;20037;-65
2022/04/20 07:44:35;;;;;;;7.22;4.45;;;8.60;99.90;;;;;;5018373;28;20478;-66
2022/04/20 07:47:00;;;;;;;9.85;5.25;;;8.50;99.90;;;;;;5015410;28;20049;-65
2022/04/20 07:52:10;;;;;;;10.18;5.40;;;8.60;99.90;;;;;;5015107;28;20473;-65
2022/04/20 07:54:36;;;;;;;10.25;5.30;;;8.80;99.90;;;;;;5016522;28;20050;-65
2022/04/20 07:57:02;;;;;;;9.38;5.43;;;9.00;99.00;;;;;;5016564;28;20111;-65
2022/04/20 07:59:27;;;;;;;10.88;5.47;;;9.00;99.60;;;;;;5016079;28;20042;-65
2022/04/20 08:01:53;;;;;;;8.27;4.90;;;9.20;98.80;;;;;;4998753;28;20021;-65
2022/04/20 08:04:19;;;;;;;8.63;5.05;;;9.20;96.30;;;;;;5023728;28;20053;-65
2022/04/20 08:06:46;;;;;;;11.77;5.50;;;9.30;97.00;;;;;;5009264;28;20052;-65
2022/04/20 08:09:11;;;;;;;10.13;4.70;;;9.50;97.00;;;;;;4999359;28;20040;-65
2022/04/20 08:11:37;;;;;;;8.52;4.93;;;9.60;95.60;;;;;;5022761;28;20037;-64
2022/04/20 08:14:12;;;;;;;8.02;4.07;;;9.80;95.80;;;;;;5008024;28;20708;-65
2022/04/20 08:16:38;;;;;;;8.43;4.53;;;9.90;94.30;;;;;;5008478;28;20057;-65
2022/04/20 08:19:04;;;;;;;10.45;4.88;;;9.70;92.00;;;;;;5017664;28;20704;-64
2022/04/20 08:21:29;;;;;;;7.93;4.50;;;9.50;93.00;;;;;;5012183;28;20026;-64
2022/04/20 08:23:55;;;;;;;8.90;4.78;;;9.80;94.70;;;;;;5012136;28;20034;-64
2022/04/20 08:26:21;;;;;;;7.75;4.30;;;10.10;93.10;;;;;;5000008;28;20472;-65
2022/04/20 08:28:46;;;;;;;7.20;4.22;;;10.00;91.80;;;;;;5031112;28;20108;-65
2022/04/20 08:31:15;;;;;;;8.52;4.57;;;10.10;91.70;;;;;;5011848;28;20030;-64
2022/04/20 08:33:44;;;;;;;6.75;3.80;;;10.10;91.30;;;;;;5020408;28;20034;-64
2022/04/20 08:36:12;;;;;;;7.45;4.32;;;10.10;90.20;;;;;;5022651;28;20085;-65
2022/04/20 08:38:39;;;;;;;7.50;4.28;;;10.00;89.60;;;;;;5018138;28;20092;-65
2022/04/20 08:41:05;;;;;;;9.00;4.40;;;10.30;90.00;;;;;;5027007;28;20692;-65
2022/04/20 08:43:32;;;;;;;8.88;4.30;;;10.40;88.30;;;;;;5011116;28;20117;-65
2022/04/20 08:46:02;;;;;;;7.88;4.05;;;10.50;85.30;;;;;;5023822;28;20052;-64
2022/04/20 08:48:29;;;;;;;8.38;4.47;;;10.60;86.90;;;;;;5023353;28;20117;-64
2022/04/20 08:50:54;;;;;;;11.57;5.18;;;10.50;83.70;;;;;;5019298;28;20108;-64
2022/04/20 08:53:21;;;;;;;9.82;4.97;;;10.40;86.30;;;;;;5017113;28;20128;-64
2022/04/20 08:55:47;;;;;;;7.90;4.70;;;10.50;86.20;;;;;;5019780;28;20041;-65
2022/04/20 08:58:13;;;;;;;9.82;4.85;;;10.60;82.30;;;;;;5021567;28;20041;-64
2022/04/20 09:00:39;;;;;;;12.25;5.18;;;10.20;79.40;;;;;;5016519;28;20037;-63
2022/04/20 09:03:05;;;;;;;9.20;5.50;;;10.00;83.10;;;;;;5020201;28;20133;-63
2022/04/20 09:05:33;;;;;;;12.00;5.70;;;10.20;86.20;;;;;;5019681;28;20126;-64
2022/04/20 09:08:09;;;;;;;9.52;5.30;;;10.10;86.00;;;;;;5021637;28;20536;-63
2022/04/20 09:10:36;;;;;;;12.43;5.53;;;10.20;84.80;;;;;;5027794;28;20576;-65
2022/04/20 09:13:07;;;;;;;10.15;5.70;;;10.20;86.70;;;;;;5025001;28;20420;-65
2022/04/20 09:15:35;;;;;;;9.10;5.35;;;10.40;84.20;;;;;;5019161;28;20484;-65
2022/04/20 09:18:08;;;;;;;10.52;5.35;;;10.50;85.00;;;;;;5021552;28;20122;-64
2022/04/20 09:20:35;;;;;;;7.03;4.85;;;10.70;80.90;;;;;;5018510;28;20099;-64
2022/04/20 09:23:01;;;;;;;9.48;5.03;;;10.60;82.90;;;;;;5023530;28;20021;-65
2022/04/20 09:25:36;;;;;;;8.80;5.10;;;10.80;79.50;;;;;;5019172;28;20029;-64
2022/04/20 09:28:06;;;;;;;9.70;5.18;;;10.50;76.80;;;;;;5010131;28;20498;-64
2022/04/20 09:30:34;;;;;;;8.85;4.97;;;10.60;79.90;;;;;;5010727;28;20036;-64
2022/04/20 09:33:02;;;;;;;21.48;5.63;;;10.60;81.50;;;;;;5013017;28;20643;-63
2022/04/20 09:35:29;;;;;;;11.73;5.45;;;10.90;77.90;;;;;;5021908;28;20444;-63
2022/04/20 09:38:06;;;;;;;7.82;4.63;;;11.10;78.90;;;;;;5010433;28;20030;-64
2022/04/20 09:40:37;;;;;;;8.00;5.10;;;11.30;76.60;;;;;;5011206;28;20030;-64
2022/04/20 09:43:13;;;;;;;8.65;5.30;;;11.30;76.00;;;;;;5018365;28;20044;-64
2022/04/20 09:45:41;;;;;;;7.43;4.40;;;11.50;77.10;;;;;;5010922;28;20445;-64
2022/04/20 09:51:15;;;;;;;6.75;4.13;;;11.80;69.90;;;;;;5010204;28;20061;-63
2022/04/20 09:53:42;;;;;;;8.90;4.57;;;11.70;69.90;;;;;;5010841;28;20034;-64
2022/04/20 09:56:19;;;;;;;11.98;4.55;;;12.10;69.00;;;;;;5010199;28;20048;-64
2022/04/20 09:58:46;;;;;;;9.20;4.60;;;12.30;73.20;;;;;;5011021;28;20065;-65
2022/04/20 10:01:35;;;;;;;9.20;5.40;;;12.60;69.60;;;;;;5017599;28;20232;-63
2022/04/20 10:04:04;;;;;;;8.93;4.63;;;12.20;68.90;;;;;;5014497;28;20086;-64
2022/04/20 10:06:30;;;;;;;9.27;4.57;;;12.10;68.40;;;;;;5010470;28;20041;-64
2022/04/20 10:08:56;;;;;;;7.47;4.35;;;12.10;68.60;;;;;;5017946;28;20036;-64
2022/04/20 10:11:23;;;;;;;8.70;4.97;;;12.20;68.00;;;;;;5026211;28;20091;-64
2022/04/20 10:16:39;;;;;;;8.60;4.97;;;12.70;70.40;;;;;;5020647;28;20064;-64
2022/04/20 10:19:08;;;;;;;9.15;4.43;;;12.80;64.90;;;;;;5019684;28;20070;-64
2022/04/20 10:21:42;;;;;;;10.10;4.90;;;12.60;67.80;;;;;;5011550;28;20034;-64
2022/04/20 10:24:13;;;;;;;8.18;4.90;;;12.50;64.80;;;;;;5027849;28;20124;-63
2022/04/20 10:26:39;;;;;;;8.48;4.82;;;12.50;65.00;;;;;;5029879;28;20108;-63
2022/04/20 10:29:15;;;;;;;8.07;4.55;;;12.40;62.50;;;;;;5012126;28;20044;-65
2022/04/20 10:32:04;;;;;;;10.77;4.60;;;12.40;62.40;;;;;;5018972;28;20530;-64
2022/04/20 10:34:31;;;;;;;7.35;4.47;;;12.80;62.60;;;;;;5011413;28;20033;-65
2022/04/20 10:37:02;;;;;;;10.10;4.40;;;13.00;62.40;;;;;;5009711;28;20037;-65
2022/04/20 10:39:37;;;;;;;7.38;4.60;;;13.00;59.00;;;;;;5012391;28;20026;-65
2022/04/20 10:42:17;;;;;;;6.30;4.10;;;13.10;60.70;;;;;;5024062;28;20068;-64
2022/04/20 10:45:07;;;;;;;6.63;3.80;;;13.50;63.30;;;;;;5031518;28;20048;-64
2022/04/20 10:47:42;;;;;;;6.82;3.97;;;13.90;58.90;;;;;;5038410;28;20044;-64
2022/04/20 10:50:26;;;;;;;7.85;4.30;;;13.70;56.30;;;;;;5006617;28;20041;-64
2022/04/20 10:52:59;;;;;;;6.53;4.00;;;13.50;58.20;;;;;;5010573;28;20346;-63
2022/04/20 10:55:30;;;;;;;7.55;3.70;;;13.40;57.10;;;;;;5015815;28;20084;-63
2022/04/20 10:57:57;;;;;;;5.45;3.60;;;13.00;55.90;;;;;;5017175;28;20037;-65
2022/04/20 11:00:26;;;;;;;10.00;3.92;;;13.30;56.60;;;;;;5022317;28;20032;-67
2022/04/20 11:03:02;;;;;;;7.05;4.20;;;13.30;56.00;;;;;;5027638;28;20131;-66
2022/04/20 11:05:27;;;;;;;7.18;4.00;;;13.40;56.40;;;;;;5029784;28;20653;-67
2022/04/20 11:08:06;;;;;;;5.88;3.20;;;13.60;56.70;;;;;;5006540;28;20029;-66
2022/04/20 11:10:34;;;;;;;8.10;3.60;;;13.50;55.00;;;;;;5028278;28;20480;-66
2022/04/20 11:19:07;;;;;;;9.70;3.83;;;13.80;55.10;;;;;;5013577;28;20095;-66
2022/04/20 11:21:33;;;;;;;9.88;3.97;;;13.60;51.60;;;;;;5024170;28;20466;-67
2022/04/20 11:24:01;;;;;;;7.15;4.20;;;14.00;54.00;;;;;;5018137;28;20034;-67
2022/04/20 11:26:54;;;;;;;8.68;4.20;;;13.80;51.30;;;;;;5028604;28;20037;-66
2022/04/20 11:29:24;;;;;;;6.60;3.78;;;13.60;54.00;;;;;;5010555;28;20049;-66
2022/04/20 11:31:55;;;;;;;6.65;3.70;;;13.70;52.80;;;;;;5022770;28;20034;-67
2022/04/20 11:34:21;;;;;;;8.20;4.28;;;13.90;51.70;;;;;;5018982;28;20030;-67
2022/04/20 11:36:49;;;;;;;7.45;4.13;;;14.20;51.90;;;;;;5023432;28;20041;-66
2022/04/20 11:39:17;;;;;;;7.18;4.07;;;14.40;51.70;;;;;;4999159;28;20037;-65
2022/04/20 11:41:48;;;;;;;7.53;4.05;;;14.40;52.10;;;;;;5009690;28;20042;-66
2022/04/20 11:44:21;;;;;;;8.05;4.00;;;14.60;51.40;;;;;;5009160;28;20061;-66
2022/04/20 11:46:48;;;;;;;9.93;4.40;;;14.80;53.30;;;;;;5009546;28;20036;-66
2022/04/20 11:49:14;;;;;;;7.80;4.18;;;14.90;50.80;;;;;;5008815;28;20030;-66
2022/04/20 11:51:57;;;;;;;8.57;4.25;;;15.20;53.10;;;;;;5009744;28;20034;-66
2022/04/20 11:54:25;;;;;;;8.15;4.35;;;15.40;50.50;;;;;;5013546;28;20079;-65
2022/04/20 11:56:51;;;;;;;9.40;4.70;;;14.60;49.90;;;;;;5017768;28;20042;-65
2022/04/20 11:59:18;;;;;;;5.95;3.88;;;14.40;50.10;;;;;;5032214;28;20017;-66
2022/04/20 12:01:45;;;;;;;6.40;4.30;;;14.30;51.90;;;;;;5024272;28;20087;-66
2022/04/20 12:04:15;;;;;;;7.63;4.35;;;14.40;50.80;;;;;;5017637;28;20028;-66
2022/04/20 12:06:55;;;;;;;6.50;4.25;;;14.50;51.40;;;;;;5032985;28;20112;-66
2022/04/20 12:09:28;;;;;;;6.63;3.90;;;14.30;50.30;;;;;;5025148;28;20034;-66
2022/04/20 12:11:59;;;;;;;6.10;4.10;;;14.40;50.60;;;;;;5012882;28;20044;-66
2022/04/20 12:14:30;;;;;;;19.00;4.13;;;14.40;53.00;;;;;;5012838;28;20021;-65
2022/04/20 12:17:00;;;;;;;8.98;4.13;;;14.70;50.30;;;;;;4995385;28;20136;-65
2022/04/20 12:19:27;;;;;;;6.53;3.72;;;14.60;49.10;;;;;;5020839;28;20481;-66
2022/04/20 12:21:53;;;;;;;7.35;3.80;;;14.60;49.30;;;;;;5032900;28;20041;-66
2022/04/20 12:24:25;;;;;;;6.32;4.00;;;14.70;51.90;;;;;;5032001;28;20021;-66
2022/04/20 12:26:53;;;;;;;6.82;4.25;;;15.20;50.80;;;;;;5032828;28;20266;-66
2022/04/20 12:29:21;;;;;;;8.73;4.43;;;15.20;49.70;;;;;;5030239;28;20017;-66
2022/04/20 12:31:53;;;;;;;7.18;4.50;;;15.30;52.10;;;;;;5032423;28;20428;-66
2022/04/20 12:34:19;;;;;;;7.95;4.63;;;15.50;49.90;;;;;;5027637;28;20105;-66
2022/04/20 12:36:58;;;;;;;8.55;4.57;;;15.40;50.30;;;;;;5032453;28;20187;-66
2022/04/20 12:39:38;;;;;;;6.35;4.13;;;15.30;49.70;;;;;;5032049;28;20022;-66
2022/04/20 12:42:09;;;;;;;10.48;4.47;;;15.00;49.20;;;;;;5017614;28;20030;-65
2022/04/20 12:44:48;;;;;;;9.88;4.32;;;15.10;50.40;;;;;;5012623;28;20113;-65
2022/04/20 12:47:17;;;;;;;8.55;4.18;;;15.40;51.00;;;;;;5011603;28;20080;-66
2022/04/20 12:49:53;;;;;;;6.80;4.47;;;15.70;48.80;;;;;;5024863;28;20034;-65
2022/04/20 12:52:20;;;;;;;10.52;4.50;;;15.40;49.50;;;;;;5031570;28;20119;-65
2022/04/20 12:54:57;;;;;;;5.55;3.95;;;15.30;49.90;;;;;;5031021;28;20036;-65
2022/04/20 13:03:07;;;;;;;6.68;4.53;;;15.30;49.30;;;;;;5011726;28;20045;-65
2022/04/20 13:05:37;;;;;;;8.77;4.82;;;15.60;51.20;;;;;;5013577;28;20089;-65
2022/04/20 13:08:07;;;;;;;6.90;4.65;;;15.90;49.20;;;;;;5025669;28;20033;-64
2022/04/20 13:10:42;;;;;;;6.75;4.40;;;15.60;48.60;;;;;;5019354;28;20398;-66
2022/04/20 13:13:08;;;;;;;10.45;5.00;;;15.80;49.00;;;;;;5029117;28;20040;-66
2022/04/20 13:15:34;;;;;;;11.05;4.85;;;16.00;49.20;;;;;;5031358;28;20117;-66
2022/04/20 13:18:01;;;;;;;8.10;5.25;;;16.40;51.60;;;;;;5031658;28;20302;-66
2022/04/20 13:20:28;;;;;;;7.03;4.68;;;16.50;49.10;;;;;;5031337;28;20025;-66
2022/04/20 13:22:55;;;;;;;9.10;5.35;;;16.10;49.90;;;;;;5031766;28;20488;-66
2022/04/20 13:28:06;;;;;;;7.45;5.10;;;15.30;49.40;;;;;;5025727;28;20053;-64
2022/04/20 13:30:36;;;;;;;8.45;5.00;;;15.20;50.00;;;;;;4994230;28;20033;-66
2022/04/20 13:33:05;;;;;;;8.45;5.30;;;15.40;49.10;;;;;;5011690;28;20041;-64